sensor_id;sensor_type;location;lat;lon;timestamp;P1;durP1;ratioP1;P2;durP2;ratioP2
9334;SDS011;4706;41.844;26.082;2023-08-31T00:01:38;6.32;;;5.70;;
9334;SDS011;4706;41.844;26.082;2023-08-31T00:04:04;6.60;;;5.68;;
9334;SDS011;4706;41.844;26.082;2023-08-31T00:06:33;6.25;;;5.68;;
9334;SDS011;4706;41.844;26.082;2023-08-31T00:08:59;6.70;;;5.97;;
9334;SDS011;4706;41.844;26.082;2023-08-31T00:11:24;5.80;;;5.28;;
9334;SDS011;4706;41.844;26.082;2023-08-31T00:13:51;6.43;;;5.82;;
9334;SDS011;4706;41.844;26.082;2023-08-31T00:16:17;6.82;;;5.97;;
9334;SDS011;4706;41.844;26.082;2023-08-31T00:18:43;6.18;;;5.63;;
9334;SDS011;4706;41.844;26.082;2023-08-31T00:21:10;6.35;;;5.75;;
9334;SDS011;4706;41.844;26.082;2023-08-31T00:23:36;6.95;;;6.35;;
9334;SDS011;4706;41.844;26.082;2023-08-31T00:26:02;6.25;;;5.75;;
9334;SDS011;4706;41.844;26.082;2023-08-31T00:28:28;6.72;;;5.95;;
9334;SDS011;4706;41.844;26.082;2023-08-31T00:30:53;6.60;;;5.93;;
9334;SDS011;4706;41.844;26.082;2023-08-31T00:33:19;6.97;;;6.22;;
9334;SDS011;4706;41.844;26.082;2023-08-31T00:35:45;6.45;;;5.88;;
9334;SDS011;4706;41.844;26.082;2023-08-31T00:38:13;8.90;;;6.30;;
9334;SDS011;4706;41.844;26.082;2023-08-31T00:40:39;6.72;;;6.07;;
9334;SDS011;4706;41.844;26.082;2023-08-31T00:43:10;6.70;;;6.00;;
9334;SDS011;4706;41.844;26.082;2023-08-31T00:45:37;7.20;;;6.50;;
9334;SDS011;4706;41.844;26.082;2023-08-31T00:48:03;6.97;;;6.30;;
9334;SDS011;4706;41.844;26.082;2023-08-31T00:50:29;6.95;;;6.35;;
9334;SDS011;4706;41.844;26.082;2023-08-31T00:52:55;8.70;;;6.50;;
9334;SDS011;4706;41.844;26.082;2023-08-31T00:55:22;7.10;;;6.35;;
9334;SDS011;4706;41.844;26.082;2023-08-31T00:57:48;7.88;;;6.65;;
9334;SDS011;4706;41.844;26.082;2023-08-31T01:00:14;7.18;;;6.47;;
9334;SDS011;4706;41.844;26.082;2023-08-31T01:02:42;7.80;;;6.30;;
9334;SDS011;4706;41.844;26.082;2023-08-31T01:08:15;7.00;;;6.13;;
9334;SDS011;4706;41.844;26.082;2023-08-31T01:10:43;7.15;;;6.53;;
9334;SDS011;4706;41.844;26.082;2023-08-31T01:13:21;7.30;;;6.60;;
9334;SDS011;4706;41.844;26.082;2023-08-31T01:15:51;7.50;;;6.80;;
9334;SDS011;4706;41.844;26.082;2023-08-31T01:18:20;7.85;;;6.55;;
9334;SDS011;4706;41.844;26.082;2023-08-31T01:21:09;8.55;;;7.38;;
9334;SDS011;4706;41.844;26.082;2023-08-31T01:26:20;7.80;;;7.07;;
9334;SDS011;4706;41.844;26.082;2023-08-31T01:28:47;7.57;;;6.97;;
9334;SDS011;4706;41.844;26.082;2023-08-31T01:31:13;7.78;;;7.07;;
9334;SDS011;4706;41.844;26.082;2023-08-31T01:37:00;7.88;;;7.07;;
9334;SDS011;4706;41.844;26.082;2023-08-31T01:42:08;7.65;;;6.90;;
9334;SDS011;4706;41.844;26.082;2023-08-31T01:44:38;7.30;;;6.70;;
9334;SDS011;4706;41.844;26.082;2023-08-31T01:47:05;7.95;;;7.13;;
9334;SDS011;4706;41.844;26.082;2023-08-31T01:49:35;8.45;;;7.63;;
9334;SDS011;4706;41.844;26.082;2023-08-31T01:52:04;8.52;;;7.07;;
9334;SDS011;4706;41.844;26.082;2023-08-31T01:54:30;10.57;;;7.88;;
9334;SDS011;4706;41.844;26.082;2023-08-31T01:56:56;8.57;;;7.57;;
9334;SDS011;4706;41.844;26.082;2023-08-31T01:59:22;8.38;;;7.65;;
9334;SDS011;4706;41.844;26.082;2023-08-31T02:01:47;8.60;;;7.85;;
9334;SDS011;4706;41.844;26.082;2023-08-31T02:04:13;8.85;;;8.05;;
9334;SDS011;4706;41.844;26.082;2023-08-31T02:06:38;9.32;;;8.52;;
9334;SDS011;4706;41.844;26.082;2023-08-31T02:09:04;9.15;;;8.25;;
9334;SDS011;4706;41.844;26.082;2023-08-31T02:11:30;12.65;;;8.15;;
9334;SDS011;4706;41.844;26.082;2023-08-31T02:13:57;10.05;;;8.90;;
9334;SDS011;4706;41.844;26.082;2023-08-31T02:16:23;9.40;;;8.32;;
9334;SDS011;4706;41.844;26.082;2023-08-31T02:18:48;8.77;;;8.02;;
9334;SDS011;4706;41.844;26.082;2023-08-31T02:21:14;8.88;;;8.13;;
9334;SDS011;4706;41.844;26.082;2023-08-31T02:23:39;9.60;;;8.30;;
9334;SDS011;4706;41.844;26.082;2023-08-31T02:26:04;8.98;;;8.25;;
9334;SDS011;4706;41.844;26.082;2023-08-31T02:28:30;9.27;;;8.38;;
9334;SDS011;4706;41.844;26.082;2023-08-31T02:30:59;9.43;;;8.18;;
9334;SDS011;4706;41.844;26.082;2023-08-31T02:33:26;10.77;;;8.65;;
9334;SDS011;4706;41.844;26.082;2023-08-31T02:35:51;10.75;;;8.45;;
9334;SDS011;4706;41.844;26.082;2023-08-31T02:38:17;8.73;;;7.93;;
9334;SDS011;4706;41.844;26.082;2023-08-31T02:40:45;9.80;;;8.50;;
9334;SDS011;4706;41.844;26.082;2023-08-31T02:43:11;9.60;;;8.63;;
9334;SDS011;4706;41.844;26.082;2023-08-31T02:45:37;8.68;;;7.78;;
9334;SDS011;4706;41.844;26.082;2023-08-31T02:48:02;9.43;;;8.40;;
9334;SDS011;4706;41.844;26.082;2023-08-31T02:50:28;9.05;;;8.32;;
9334;SDS011;4706;41.844;26.082;2023-08-31T02:52:54;9.23;;;8.43;;
9334;SDS011;4706;41.844;26.082;2023-08-31T02:55:20;8.93;;;8.02;;
9334;SDS011;4706;41.844;26.082;2023-08-31T02:57:46;9.88;;;8.20;;
9334;SDS011;4706;41.844;26.082;2023-08-31T03:00:11;9.52;;;8.55;;
9334;SDS011;4706;41.844;26.082;2023-08-31T03:02:38;9.65;;;8.75;;
9334;SDS011;4706;41.844;26.082;2023-08-31T03:05:04;9.65;;;8.75;;
9334;SDS011;4706;41.844;26.082;2023-08-31T03:07:30;9.70;;;8.57;;
9334;SDS011;4706;41.844;26.082;2023-08-31T03:09:55;8.95;;;8.10;;
9334;SDS011;4706;41.844;26.082;2023-08-31T03:12:21;9.25;;;8.45;;
9334;SDS011;4706;41.844;26.082;2023-08-31T03:14:47;9.40;;;8.50;;
9334;SDS011;4706;41.844;26.082;2023-08-31T03:17:13;10.10;;;9.10;;
9334;SDS011;4706;41.844;26.082;2023-08-31T03:19:39;10.07;;;9.13;;
9334;SDS011;4706;41.844;26.082;2023-08-31T03:22:04;9.43;;;8.63;;
9334;SDS011;4706;41.844;26.082;2023-08-31T03:24:31;11.48;;;9.00;;
9334;SDS011;4706;41.844;26.082;2023-08-31T03:26:57;10.05;;;9.05;;
9334;SDS011;4706;41.844;26.082;2023-08-31T03:29:23;8.93;;;8.13;;
9334;SDS011;4706;41.844;26.082;2023-08-31T03:31:48;9.38;;;8.52;;
9334;SDS011;4706;41.844;26.082;2023-08-31T03:34:14;8.55;;;7.85;;
9334;SDS011;4706;41.844;26.082;2023-08-31T03:36:40;9.77;;;8.88;;
9334;SDS011;4706;41.844;26.082;2023-08-31T03:39:05;9.82;;;8.63;;
9334;SDS011;4706;41.844;26.082;2023-08-31T03:41:31;9.30;;;8.35;;
9334;SDS011;4706;41.844;26.082;2023-08-31T03:43:56;9.75;;;8.75;;
9334;SDS011;4706;41.844;26.082;2023-08-31T03:46:22;12.68;;;9.18;;
9334;SDS011;4706;41.844;26.082;2023-08-31T03:48:47;9.80;;;8.55;;
9334;SDS011;4706;41.844;26.082;2023-08-31T03:51:13;8.70;;;7.85;;
9334;SDS011;4706;41.844;26.082;2023-08-31T03:53:39;9.77;;;8.27;;
9334;SDS011;4706;41.844;26.082;2023-08-31T03:56:04;11.65;;;7.60;;
9334;SDS011;4706;41.844;26.082;2023-08-31T03:58:30;10.93;;;8.02;;
9334;SDS011;4706;41.844;26.082;2023-08-31T04:00:56;16.95;;;8.35;;
9334;SDS011;4706;41.844;26.082;2023-08-31T04:03:21;14.48;;;8.43;;
9334;SDS011;4706;41.844;26.082;2023-08-31T04:05:47;10.07;;;8.15;;
9334;SDS011;4706;41.844;26.082;2023-08-31T04:08:13;7.75;;;7.10;;
9334;SDS011;4706;41.844;26.082;2023-08-31T04:10:38;9.88;;;7.32;;
9334;SDS011;4706;41.844;26.082;2023-08-31T04:13:04;11.02;;;7.30;;
9334;SDS011;4706;41.844;26.082;2023-08-31T04:15:29;7.30;;;6.60;;
9334;SDS011;4706;41.844;26.082;2023-08-31T04:17:57;10.18;;;7.38;;
9334;SDS011;4706;41.844;26.082;2023-08-31T04:20:23;7.85;;;6.80;;
9334;SDS011;4706;41.844;26.082;2023-08-31T04:22:48;9.80;;;7.15;;
9334;SDS011;4706;41.844;26.082;2023-08-31T04:25:14;8.20;;;7.38;;
9334;SDS011;4706;41.844;26.082;2023-08-31T04:27:39;11.10;;;7.22;;
9334;SDS011;4706;41.844;26.082;2023-08-31T04:30:05;8.38;;;7.20;;
9334;SDS011;4706;41.844;26.082;2023-08-31T04:32:32;8.23;;;7.40;;
9334;SDS011;4706;41.844;26.082;2023-08-31T04:34:57;10.25;;;7.07;;
9334;SDS011;4706;41.844;26.082;2023-08-31T04:37:23;10.18;;;8.20;;
9334;SDS011;4706;41.844;26.082;2023-08-31T04:39:49;13.32;;;10.98;;
9334;SDS011;4706;41.844;26.082;2023-08-31T04:42:14;10.25;;;7.57;;
9334;SDS011;4706;41.844;26.082;2023-08-31T04:44:42;10.90;;;7.80;;
9334;SDS011;4706;41.844;26.082;2023-08-31T04:47:07;15.20;;;9.70;;
9334;SDS011;4706;41.844;26.082;2023-08-31T04:49:33;12.20;;;7.72;;
9334;SDS011;4706;41.844;26.082;2023-08-31T04:51:58;10.68;;;6.75;;
9334;SDS011;4706;41.844;26.082;2023-08-31T04:54:24;10.18;;;7.25;;
9334;SDS011;4706;41.844;26.082;2023-08-31T04:56:50;12.68;;;6.43;;
9334;SDS011;4706;41.844;26.082;2023-08-31T04:59:16;19.98;;;7.57;;
9334;SDS011;4706;41.844;26.082;2023-08-31T05:01:41;9.80;;;6.65;;
9334;SDS011;4706;41.844;26.082;2023-08-31T05:04:07;7.63;;;6.60;;
9334;SDS011;4706;41.844;26.082;2023-08-31T05:06:32;11.95;;;6.80;;
9334;SDS011;4706;41.844;26.082;2023-08-31T05:08:58;11.88;;;7.45;;
9334;SDS011;4706;41.844;26.082;2023-08-31T05:11:23;13.63;;;7.65;;
9334;SDS011;4706;41.844;26.082;2023-08-31T05:13:49;16.17;;;8.13;;
9334;SDS011;4706;41.844;26.082;2023-08-31T05:16:14;10.68;;;6.93;;
9334;SDS011;4706;41.844;26.082;2023-08-31T05:18:40;16.05;;;11.57;;
9334;SDS011;4706;41.844;26.082;2023-08-31T05:21:06;9.98;;;8.88;;
9334;SDS011;4706;41.844;26.082;2023-08-31T05:23:31;13.00;;;6.97;;
9334;SDS011;4706;41.844;26.082;2023-08-31T05:25:57;8.63;;;6.18;;
9334;SDS011;4706;41.844;26.082;2023-08-31T05:28:23;11.60;;;6.28;;
9334;SDS011;4706;41.844;26.082;2023-08-31T05:30:52;10.57;;;6.30;;
9334;SDS011;4706;41.844;26.082;2023-08-31T05:33:19;9.45;;;6.72;;
9334;SDS011;4706;41.844;26.082;2023-08-31T05:35:45;8.32;;;7.53;;
9334;SDS011;4706;41.844;26.082;2023-08-31T05:38:11;8.93;;;7.13;;
9334;SDS011;4706;41.844;26.082;2023-08-31T05:40:36;10.98;;;7.45;;
9334;SDS011;4706;41.844;26.082;2023-08-31T05:43:02;9.30;;;6.35;;
9334;SDS011;4706;41.844;26.082;2023-08-31T05:45:34;7.53;;;5.97;;
9334;SDS011;4706;41.844;26.082;2023-08-31T05:47:59;6.32;;;5.68;;
9334;SDS011;4706;41.844;26.082;2023-08-31T05:50:26;6.72;;;5.97;;
9334;SDS011;4706;41.844;26.082;2023-08-31T05:52:55;10.52;;;5.82;;
9334;SDS011;4706;41.844;26.082;2023-08-31T05:55:20;7.88;;;6.63;;
9334;SDS011;4706;41.844;26.082;2023-08-31T05:57:46;12.77;;;8.88;;
9334;SDS011;4706;41.844;26.082;2023-08-31T06:00:12;9.50;;;7.20;;
9334;SDS011;4706;41.844;26.082;2023-08-31T06:02:38;7.57;;;6.10;;
9334;SDS011;4706;41.844;26.082;2023-08-31T06:05:07;12.07;;;9.43;;
9334;SDS011;4706;41.844;26.082;2023-08-31T06:07:33;7.55;;;6.80;;
9334;SDS011;4706;41.844;26.082;2023-08-31T06:09:58;6.13;;;5.53;;
9334;SDS011;4706;41.844;26.082;2023-08-31T06:12:23;8.35;;;5.82;;
9334;SDS011;4706;41.844;26.082;2023-08-31T06:14:49;8.73;;;5.95;;
9334;SDS011;4706;41.844;26.082;2023-08-31T06:17:14;9.10;;;6.82;;
9334;SDS011;4706;41.844;26.082;2023-08-31T06:19:41;9.35;;;8.10;;
9334;SDS011;4706;41.844;26.082;2023-08-31T06:22:07;10.20;;;6.05;;
9334;SDS011;4706;41.844;26.082;2023-08-31T06:24:32;5.70;;;4.97;;
9334;SDS011;4706;41.844;26.082;2023-08-31T06:26:59;6.05;;;4.68;;
9334;SDS011;4706;41.844;26.082;2023-08-31T06:29:25;7.50;;;4.43;;
9334;SDS011;4706;41.844;26.082;2023-08-31T06:31:59;8.02;;;6.50;;
9334;SDS011;4706;41.844;26.082;2023-08-31T06:34:40;9.45;;;5.10;;
9334;SDS011;4706;41.844;26.082;2023-08-31T06:37:05;9.95;;;4.60;;
9334;SDS011;4706;41.844;26.082;2023-08-31T06:39:31;12.02;;;4.70;;
9334;SDS011;4706;41.844;26.082;2023-08-31T06:41:58;10.38;;;4.72;;
9334;SDS011;4706;41.844;26.082;2023-08-31T06:44:23;7.13;;;4.25;;
9334;SDS011;4706;41.844;26.082;2023-08-31T06:46:49;5.57;;;4.10;;
9334;SDS011;4706;41.844;26.082;2023-08-31T06:49:22;7.13;;;5.22;;
9334;SDS011;4706;41.844;26.082;2023-08-31T06:51:48;6.88;;;5.50;;
9334;SDS011;4706;41.844;26.082;2023-08-31T06:54:13;8.30;;;6.18;;
9334;SDS011;4706;41.844;26.082;2023-08-31T06:56:39;7.85;;;4.38;;
9334;SDS011;4706;41.844;26.082;2023-08-31T06:59:05;10.23;;;5.43;;
9334;SDS011;4706;41.844;26.082;2023-08-31T07:01:31;9.50;;;4.90;;
9334;SDS011;4706;41.844;26.082;2023-08-31T07:03:58;10.70;;;5.65;;
9334;SDS011;4706;41.844;26.082;2023-08-31T07:06:23;21.05;;;6.22;;
9334;SDS011;4706;41.844;26.082;2023-08-31T07:08:49;8.13;;;5.47;;
9334;SDS011;4706;41.844;26.082;2023-08-31T07:11:14;6.05;;;4.60;;
9334;SDS011;4706;41.844;26.082;2023-08-31T07:13:40;9.93;;;6.20;;
9334;SDS011;4706;41.844;26.082;2023-08-31T07:16:06;6.47;;;4.10;;
9334;SDS011;4706;41.844;26.082;2023-08-31T07:18:32;9.00;;;5.05;;
9334;SDS011;4706;41.844;26.082;2023-08-31T07:20:57;5.60;;;4.47;;
9334;SDS011;4706;41.844;26.082;2023-08-31T07:23:23;7.53;;;5.10;;
9334;SDS011;4706;41.844;26.082;2023-08-31T07:25:49;6.13;;;4.75;;
9334;SDS011;4706;41.844;26.082;2023-08-31T07:28:14;10.93;;;4.78;;
9334;SDS011;4706;41.844;26.082;2023-08-31T07:30:40;9.02;;;5.13;;
9334;SDS011;4706;41.844;26.082;2023-08-31T07:33:06;13.40;;;4.72;;
9334;SDS011;4706;41.844;26.082;2023-08-31T07:35:32;4.90;;;4.40;;
9334;SDS011;4706;41.844;26.082;2023-08-31T07:37:58;6.57;;;4.50;;
9334;SDS011;4706;41.844;26.082;2023-08-31T07:40:23;7.35;;;4.45;;
9334;SDS011;4706;41.844;26.082;2023-08-31T07:42:50;9.35;;;4.88;;
9334;SDS011;4706;41.844;26.082;2023-08-31T07:45:16;8.95;;;4.75;;
9334;SDS011;4706;41.844;26.082;2023-08-31T07:47:42;13.32;;;6.78;;
9334;SDS011;4706;41.844;26.082;2023-08-31T07:50:07;7.20;;;4.57;;
9334;SDS011;4706;41.844;26.082;2023-08-31T07:52:33;5.05;;;4.55;;
9334;SDS011;4706;41.844;26.082;2023-08-31T07:54:59;11.88;;;5.03;;
9334;SDS011;4706;41.844;26.082;2023-08-31T07:57:25;10.00;;;5.10;;
9334;SDS011;4706;41.844;26.082;2023-08-31T07:59:51;7.80;;;5.50;;
9334;SDS011;4706;41.844;26.082;2023-08-31T08:02:18;7.68;;;5.47;;
9334;SDS011;4706;41.844;26.082;2023-08-31T08:04:45;7.15;;;5.18;;
9334;SDS011;4706;41.844;26.082;2023-08-31T08:07:11;11.25;;;5.03;;
9334;SDS011;4706;41.844;26.082;2023-08-31T08:09:36;6.75;;;6.15;;
9334;SDS011;4706;41.844;26.082;2023-08-31T08:12:02;5.97;;;5.47;;
9334;SDS011;4706;41.844;26.082;2023-08-31T08:14:28;7.75;;;4.60;;
9334;SDS011;4706;41.844;26.082;2023-08-31T08:16:54;26.30;;;7.10;;
9334;SDS011;4706;41.844;26.082;2023-08-31T08:19:23;8.40;;;5.55;;
9334;SDS011;4706;41.844;26.082;2023-08-31T08:21:49;6.85;;;5.00;;
9334;SDS011;4706;41.844;26.082;2023-08-31T08:24:15;6.22;;;4.80;;
9334;SDS011;4706;41.844;26.082;2023-08-31T08:26:41;6.90;;;4.78;;
9334;SDS011;4706;41.844;26.082;2023-08-31T08:29:06;10.25;;;5.45;;
9334;SDS011;4706;41.844;26.082;2023-08-31T08:31:32;5.95;;;4.85;;
9334;SDS011;4706;41.844;26.082;2023-08-31T08:33:57;7.22;;;5.00;;
9334;SDS011;4706;41.844;26.082;2023-08-31T08:36:23;5.45;;;4.90;;
9334;SDS011;4706;41.844;26.082;2023-08-31T08:38:48;8.60;;;4.88;;
9334;SDS011;4706;41.844;26.082;2023-08-31T08:41:14;4.60;;;4.20;;
9334;SDS011;4706;41.844;26.082;2023-08-31T08:43:40;6.85;;;4.32;;
9334;SDS011;4706;41.844;26.082;2023-08-31T08:46:08;6.82;;;4.63;;
9334;SDS011;4706;41.844;26.082;2023-08-31T08:48:34;6.70;;;4.82;;
9334;SDS011;4706;41.844;26.082;2023-08-31T08:51:03;6.65;;;5.07;;
9334;SDS011;4706;41.844;26.082;2023-08-31T08:53:29;6.97;;;4.63;;
9334;SDS011;4706;41.844;26.082;2023-08-31T08:55:55;15.18;;;8.15;;
9334;SDS011;4706;41.844;26.082;2023-08-31T08:58:21;7.90;;;5.00;;
9334;SDS011;4706;41.844;26.082;2023-08-31T09:00:46;9.23;;;4.90;;
9334;SDS011;4706;41.844;26.082;2023-08-31T09:03:13;6.43;;;4.68;;
9334;SDS011;4706;41.844;26.082;2023-08-31T09:05:38;5.07;;;4.50;;
9334;SDS011;4706;41.844;26.082;2023-08-31T09:08:07;6.20;;;4.88;;
9334;SDS011;4706;41.844;26.082;2023-08-31T09:10:55;6.20;;;4.70;;
9334;SDS011;4706;41.844;26.082;2023-08-31T09:13:25;5.50;;;4.70;;
9334;SDS011;4706;41.844;26.082;2023-08-31T09:15:51;9.40;;;5.90;;
9334;SDS011;4706;41.844;26.082;2023-08-31T09:18:23;6.25;;;5.10;;
9334;SDS011;4706;41.844;26.082;2023-08-31T09:20:51;5.60;;;4.90;;
9334;SDS011;4706;41.844;26.082;2023-08-31T09:23:17;7.22;;;5.22;;
9334;SDS011;4706;41.844;26.082;2023-08-31T09:25:47;6.28;;;4.68;;
9334;SDS011;4706;41.844;26.082;2023-08-31T09:28:24;8.07;;;6.10;;
9334;SDS011;4706;41.844;26.082;2023-08-31T09:30:52;6.43;;;4.95;;
9334;SDS011;4706;41.844;26.082;2023-08-31T09:33:20;6.82;;;5.43;;
9334;SDS011;4706;41.844;26.082;2023-08-31T09:35:47;5.88;;;5.07;;
9334;SDS011;4706;41.844;26.082;2023-08-31T09:38:14;10.73;;;5.75;;
9334;SDS011;4706;41.844;26.082;2023-08-31T09:40:40;7.47;;;5.07;;
9334;SDS011;4706;41.844;26.082;2023-08-31T09:43:05;6.30;;;5.38;;
9334;SDS011;4706;41.844;26.082;2023-08-31T09:45:32;7.38;;;5.93;;
9334;SDS011;4706;41.844;26.082;2023-08-31T09:47:59;9.15;;;5.97;;
9334;SDS011;4706;41.844;26.082;2023-08-31T09:50:26;7.63;;;6.32;;
9334;SDS011;4706;41.844;26.082;2023-08-31T09:52:55;6.63;;;5.47;;
9334;SDS011;4706;41.844;26.082;2023-08-31T09:55:27;7.22;;;6.60;;
9334;SDS011;4706;41.844;26.082;2023-08-31T09:57:55;6.85;;;4.80;;
9334;SDS011;4706;41.844;26.082;2023-08-31T10:00:26;7.75;;;6.25;;
9334;SDS011;4706;41.844;26.082;2023-08-31T10:02:54;9.13;;;5.85;;
9334;SDS011;4706;41.844;26.082;2023-08-31T10:05:32;7.43;;;5.93;;
9334;SDS011;4706;41.844;26.082;2023-08-31T10:08:00;7.10;;;5.85;;
9334;SDS011;4706;41.844;26.082;2023-08-31T10:10:28;6.65;;;6.07;;
9334;SDS011;4706;41.844;26.082;2023-08-31T10:12:55;7.95;;;6.10;;
9334;SDS011;4706;41.844;26.082;2023-08-31T10:15:21;7.00;;;6.18;;
9334;SDS011;4706;41.844;26.082;2023-08-31T10:17:47;5.80;;;5.28;;
9334;SDS011;4706;41.844;26.082;2023-08-31T10:20:16;6.32;;;5.65;;
9334;SDS011;4706;41.844;26.082;2023-08-31T10:22:44;7.15;;;5.90;;
9334;SDS011;4706;41.844;26.082;2023-08-31T10:25:09;6.13;;;5.53;;
9334;SDS011;4706;41.844;26.082;2023-08-31T10:27:41;7.63;;;6.32;;
9334;SDS011;4706;41.844;26.082;2023-08-31T10:33:25;7.10;;;5.82;;
9334;SDS011;4706;41.844;26.082;2023-08-31T10:35:51;7.22;;;6.10;;
9334;SDS011;4706;41.844;26.082;2023-08-31T10:41:16;5.97;;;5.50;;
9334;SDS011;4706;41.844;26.082;2023-08-31T10:46:34;7.05;;;6.35;;
9334;SDS011;4706;41.844;26.082;2023-08-31T10:49:05;7.25;;;5.70;;
9334;SDS011;4706;41.844;26.082;2023-08-31T10:51:39;8.48;;;5.88;;
9334;SDS011;4706;41.844;26.082;2023-08-31T10:59:42;7.60;;;5.75;;
9334;SDS011;4706;41.844;26.082;2023-08-31T11:02:34;7.63;;;5.53;;
9334;SDS011;4706;41.844;26.082;2023-08-31T11:07:47;7.65;;;5.75;;
9334;SDS011;4706;41.844;26.082;2023-08-31T11:10:17;5.97;;;5.40;;
9334;SDS011;4706;41.844;26.082;2023-08-31T11:12:55;6.10;;;5.50;;
9334;SDS011;4706;41.844;26.082;2023-08-31T11:15:25;6.43;;;5.80;;
9334;SDS011;4706;41.844;26.082;2023-08-31T11:17:52;6.32;;;5.60;;
9334;SDS011;4706;41.844;26.082;2023-08-31T11:20:19;7.10;;;6.40;;
9334;SDS011;4706;41.844;26.082;2023-08-31T11:22:47;6.82;;;5.60;;
9334;SDS011;4706;41.844;26.082;2023-08-31T11:25:18;6.10;;;5.47;;
9334;SDS011;4706;41.844;26.082;2023-08-31T11:27:55;6.00;;;5.43;;
9334;SDS011;4706;41.844;26.082;2023-08-31T11:30:21;6.55;;;5.30;;
9334;SDS011;4706;41.844;26.082;2023-08-31T11:32:49;6.57;;;5.97;;
9334;SDS011;4706;41.844;26.082;2023-08-31T11:35:15;6.45;;;5.57;;
9334;SDS011;4706;41.844;26.082;2023-08-31T11:37:44;6.13;;;5.53;;
9334;SDS011;4706;41.844;26.082;2023-08-31T11:40:11;9.38;;;5.53;;
9334;SDS011;4706;41.844;26.082;2023-08-31T11:42:39;6.55;;;5.70;;
9334;SDS011;4706;41.844;26.082;2023-08-31T11:45:05;6.22;;;5.63;;
9334;SDS011;4706;41.844;26.082;2023-08-31T11:47:32;7.05;;;5.85;;
9334;SDS011;4706;41.844;26.082;2023-08-31T11:49:58;6.43;;;5.82;;
9334;SDS011;4706;41.844;26.082;2023-08-31T11:52:24;7.22;;;5.57;;
9334;SDS011;4706;41.844;26.082;2023-08-31T11:54:51;7.13;;;5.72;;
9334;SDS011;4706;41.844;26.082;2023-08-31T11:57:18;7.40;;;5.28;;
9334;SDS011;4706;41.844;26.082;2023-08-31T11:59:44;5.97;;;5.38;;
9334;SDS011;4706;41.844;26.082;2023-08-31T12:02:09;6.43;;;5.72;;
9334;SDS011;4706;41.844;26.082;2023-08-31T12:04:42;7.18;;;5.28;;
9334;SDS011;4706;41.844;26.082;2023-08-31T12:07:08;6.30;;;5.55;;
9334;SDS011;4706;41.844;26.082;2023-08-31T12:09:34;5.65;;;4.82;;
9334;SDS011;4706;41.844;26.082;2023-08-31T12:12:00;5.70;;;5.07;;
9334;SDS011;4706;41.844;26.082;2023-08-31T12:14:26;5.95;;;5.38;;
9334;SDS011;4706;41.844;26.082;2023-08-31T12:16:59;6.78;;;5.80;;
9334;SDS011;4706;41.844;26.082;2023-08-31T12:19:27;6.13;;;5.50;;
9334;SDS011;4706;41.844;26.082;2023-08-31T12:21:55;5.90;;;5.15;;
9334;SDS011;4706;41.844;26.082;2023-08-31T12:24:21;6.15;;;5.60;;
9334;SDS011;4706;41.844;26.082;2023-08-31T12:26:48;6.15;;;5.65;;
9334;SDS011;4706;41.844;26.082;2023-08-31T12:29:14;6.32;;;5.60;;
9334;SDS011;4706;41.844;26.082;2023-08-31T12:31:40;6.20;;;5.32;;
9334;SDS011;4706;41.844;26.082;2023-08-31T12:34:06;7.43;;;5.40;;
9334;SDS011;4706;41.844;26.082;2023-08-31T12:36:32;9.57;;;6.50;;
9334;SDS011;4706;41.844;26.082;2023-08-31T12:38:58;6.72;;;5.82;;
9334;SDS011;4706;41.844;26.082;2023-08-31T12:41:27;9.85;;;5.55;;
9334;SDS011;4706;41.844;26.082;2023-08-31T12:43:53;6.10;;;5.18;;
9334;SDS011;4706;41.844;26.082;2023-08-31T12:46:19;6.90;;;5.70;;
9334;SDS011;4706;41.844;26.082;2023-08-31T12:48:44;20.50;;;14.35;;
9334;SDS011;4706;41.844;26.082;2023-08-31T12:51:10;18.23;;;14.18;;
9334;SDS011;4706;41.844;26.082;2023-08-31T12:53:39;17.10;;;12.77;;
9334;SDS011;4706;41.844;26.082;2023-08-31T12:56:05;16.52;;;14.90;;
9334;SDS011;4706;41.844;26.082;2023-08-31T12:58:31;22.40;;;20.15;;
9334;SDS011;4706;41.844;26.082;2023-08-31T13:00:58;25.60;;;22.35;;
9334;SDS011;4706;41.844;26.082;2023-08-31T13:03:24;20.92;;;18.98;;
9334;SDS011;4706;41.844;26.082;2023-08-31T13:05:49;20.38;;;18.38;;
9334;SDS011;4706;41.844;26.082;2023-08-31T13:08:15;24.85;;;22.52;;
9334;SDS011;4706;41.844;26.082;2023-08-31T13:10:41;24.05;;;21.75;;
9334;SDS011;4706;41.844;26.082;2023-08-31T13:13:07;25.40;;;23.23;;
9334;SDS011;4706;41.844;26.082;2023-08-31T13:15:33;25.42;;;22.92;;
9334;SDS011;4706;41.844;26.082;2023-08-31T13:17:59;23.92;;;21.55;;
9334;SDS011;4706;41.844;26.082;2023-08-31T13:20:25;26.27;;;23.40;;
9334;SDS011;4706;41.844;26.082;2023-08-31T13:22:52;25.92;;;23.60;;
9334;SDS011;4706;41.844;26.082;2023-08-31T13:25:17;24.27;;;22.05;;
9334;SDS011;4706;41.844;26.082;2023-08-31T13:27:43;24.02;;;21.92;;
9334;SDS011;4706;41.844;26.082;2023-08-31T13:30:09;26.33;;;23.63;;
9334;SDS011;4706;41.844;26.082;2023-08-31T13:32:37;24.33;;;22.02;;
9334;SDS011;4706;41.844;26.082;2023-08-31T13:35:03;25.45;;;22.73;;
9334;SDS011;4706;41.844;26.082;2023-08-31T13:37:33;26.67;;;24.13;;
9334;SDS011;4706;41.844;26.082;2023-08-31T13:39:59;33.00;;;30.00;;
9334;SDS011;4706;41.844;26.082;2023-08-31T13:42:25;30.80;;;27.73;;
9334;SDS011;4706;41.844;26.082;2023-08-31T13:44:51;37.05;;;27.40;;
9334;SDS011;4706;41.844;26.082;2023-08-31T13:47:16;25.90;;;23.60;;
9334;SDS011;4706;41.844;26.082;2023-08-31T13:49:42;27.23;;;24.73;;
9334;SDS011;4706;41.844;26.082;2023-08-31T13:52:07;24.27;;;21.85;;
9334;SDS011;4706;41.844;26.082;2023-08-31T13:54:35;26.30;;;24.05;;
9334;SDS011;4706;41.844;26.082;2023-08-31T13:57:01;31.98;;;29.10;;
9334;SDS011;4706;41.844;26.082;2023-08-31T13:59:26;32.97;;;30.10;;
9334;SDS011;4706;41.844;26.082;2023-08-31T14:01:53;37.45;;;34.10;;
9334;SDS011;4706;41.844;26.082;2023-08-31T14:04:19;37.22;;;33.92;;
9334;SDS011;4706;41.844;26.082;2023-08-31T14:06:45;40.33;;;36.78;;
9334;SDS011;4706;41.844;26.082;2023-08-31T14:09:10;45.22;;;41.17;;
9334;SDS011;4706;41.844;26.082;2023-08-31T14:11:36;49.40;;;44.65;;
9334;SDS011;4706;41.844;26.082;2023-08-31T14:14:02;54.05;;;49.45;;
9334;SDS011;4706;41.844;26.082;2023-08-31T14:16:34;56.20;;;51.03;;
9334;SDS011;4706;41.844;26.082;2023-08-31T14:19:01;54.95;;;49.97;;
9334;SDS011;4706;41.844;26.082;2023-08-31T14:21:27;55.30;;;50.28;;
9334;SDS011;4706;41.844;26.082;2023-08-31T14:23:53;53.05;;;48.33;;
9334;SDS011;4706;41.844;26.082;2023-08-31T14:26:23;52.42;;;47.60;;
9334;SDS011;4706;41.844;26.082;2023-08-31T14:28:52;50.25;;;45.75;;
9334;SDS011;4706;41.844;26.082;2023-08-31T14:31:18;52.05;;;47.08;;
9334;SDS011;4706;41.844;26.082;2023-08-31T14:33:44;52.33;;;47.70;;
9334;SDS011;4706;41.844;26.082;2023-08-31T14:36:10;53.03;;;48.17;;
9334;SDS011;4706;41.844;26.082;2023-08-31T14:38:37;53.88;;;48.92;;
9334;SDS011;4706;41.844;26.082;2023-08-31T14:41:03;56.38;;;51.53;;
9334;SDS011;4706;41.844;26.082;2023-08-31T14:43:29;56.28;;;51.15;;
9334;SDS011;4706;41.844;26.082;2023-08-31T14:45:55;61.17;;;55.58;;
9334;SDS011;4706;41.844;26.082;2023-08-31T14:48:20;60.45;;;54.75;;
9334;SDS011;4706;41.844;26.082;2023-08-31T14:50:46;64.15;;;58.38;;
9334;SDS011;4706;41.844;26.082;2023-08-31T14:53:11;67.15;;;61.30;;
9334;SDS011;4706;41.844;26.082;2023-08-31T14:55:37;68.32;;;62.17;;
9334;SDS011;4706;41.844;26.082;2023-08-31T14:58:03;64.95;;;59.28;;
9334;SDS011;4706;41.844;26.082;2023-08-31T15:00:31;63.55;;;57.80;;
9334;SDS011;4706;41.844;26.082;2023-08-31T15:02:56;61.10;;;55.75;;
9334;SDS011;4706;41.844;26.082;2023-08-31T15:05:22;58.13;;;53.03;;
9334;SDS011;4706;41.844;26.082;2023-08-31T15:07:50;54.85;;;49.83;;
9334;SDS011;4706;41.844;26.082;2023-08-31T15:10:16;53.25;;;48.65;;
9334;SDS011;4706;41.844;26.082;2023-08-31T15:12:43;50.15;;;45.35;;
9334;SDS011;4706;41.844;26.082;2023-08-31T15:15:09;43.17;;;39.08;;
9334;SDS011;4706;41.844;26.082;2023-08-31T15:17:35;40.88;;;37.03;;
9334;SDS011;4706;41.844;26.082;2023-08-31T15:20:00;34.85;;;31.27;;
9334;SDS011;4706;41.844;26.082;2023-08-31T15:22:26;32.05;;;29.13;;